Data for 09/29/2006

Time Sea-Level Adjusted Pressure Absolute Pressure Temperature Relative Humidity Dew Point   
(mb) (inHg) (mb) (inHg) (C) (F) (%) (C) (F)
00:05 1020 30.12 849 25.07 14.7 58.5 43 2.5 36.5
00:10 1020 30.12 849 25.07 14.9 58.8 43 2.5 36.5
00:15 1020 30.12 849 25.07 14.9 58.7 43 2.3 36.2
00:20 1020 30.12 849 25.07 14.9 58.8 43 2.6 36.6
00:25 1020 30.12 849 25.07 15 58.9 42 2.3 36.1
00:30 1020 30.12 849 25.07 15.1 59.2 42 2.5 36.4
00:35 1020 30.12 849 25.07 15.1 59.1 42 2.5 36.5
00:40 1020 30.12 849 25.07 15 58.9 42 2.2 36
00:45 1020 30.12 849 25.07 15.1 59.2 42 2.2 36
00:50 1020 30.12 849 25.07 15.3 59.5 41 2.1 35.8
00:55 1020 30.12 849 25.07 15.3 59.6 41 2.2 36
01:00 1020 30.12 849 25.07 15.2 59.4 41 2 35.6
01:05 1020 30.12 849 25.07 15.2 59.3 41 2 35.6
01:10 1020 30.12 849 25.07 15.1 59.2 40 1.9 35.4
01:15 1020 30.12 850 25.1 15 59.1 42 2.2 36
01:20 1020 30.12 849 25.07 14.9 58.8 42 2 35.7
01:25 1020 30.12 849 25.07 14.8 58.7 42 2.2 36
01:30 1020 30.12 849 25.07 14.8 58.6 41 1.9 35.4
01:35 1020 30.12 849 25.07 14.7 58.5 42 1.9 35.4
01:40 1020 30.12 849 25.07 14.7 58.4 42 2 35.5
01:45 1020 30.12 849 25.07 14.6 58.2 42 1.9 35.4
01:50 1020 30.12 849 25.07 14.5 58.2 42 1.8 35.3
01:55 1020 30.12 849 25.07 14.5 58.1 42 1.9 35.5
02:00 1020 30.12 849 25.07 14.4 57.9 43 1.9 35.5
02:05 1020 30.12 849 25.07 14.3 57.7 43 2 35.5
02:10 1020 30.12 849 25.07 14 57.2 44 2.1 35.7
02:15 1020 30.12 849 25.07 13.7 56.7 44 1.8 35.3
02:20 1020 30.12 850 25.1 13.6 56.5 44 1.7 35.1
02:25 1020 30.12 850 25.1 13.6 56.4 45 1.8 35.3
02:30 1020 30.12 850 25.1 13.5 56.2 46 2 35.7
02:35 1020 30.12 850 25.1 13.1 55.6 47 2.1 35.8
02:40 1020 30.12 850 25.1 12.5 54.5 49 2.2 36
02:45 1020 30.12 850 25.1 12.2 54 48 1.7 35.1
02:50 1020 30.12 850 25.1 12.5 54.4 47 1.5 34.6
02:55 1020 30.12 850 25.1 12.5 54.4 49 2.1 35.7
03:00 1020 30.12 850 25.1 11.9 53.4 51 2.2 35.9
03:05 1020 30.12 850 25.1 11.5 52.6 51 1.8 35.2
03:10 1020 30.12 850 25.1 11.5 52.7 51 1.7 35.1
03:15 1021 30.15 850 25.1 11.5 52.6 50 1.6 34.8
03:20 1020 30.12 850 25.1 11.4 52.5 51 1.8 35.2
03:25 1020 30.12 850 25.1 11.3 52.3 52 1.7 35.1
03:30 1020 30.12 850 25.1 11.3 52.3 50 1.3 34.3
03:35 1020 30.12 850 25.1 11.6 53 49 1.4 34.5
03:40 1020 30.12 850 25.1 11.8 53.2 48 1.2 34.2
03:45 1020 30.12 850 25.1 11.9 53.3 49 1.6 34.9
03:50 1020 30.12 850 25.1 11.7 53 49 1.4 34.5
03:55 1020 30.12 850 25.1 12 53.7 45 0.5 32.8
04:00 1020 30.12 850 25.1 12.7 54.8 45 1.2 34.2
04:05 1020 30.12 850 25.1 12.4 54.4 46 1.2 34.1
04:10 1021 30.15 850 25.1 12.6 54.7 43 0.5 32.9
04:15 1021 30.15 850 25.1 12.7 54.9 44 1 33.8
04:20 1021 30.15 850 25.1 12.6 54.7 44 0.7 33.2
04:25 1021 30.15 850 25.1 12.7 54.9 44 0.7 33.3
04:30 1021 30.15 850 25.1 12.8 55 44 0.9 33.7
04:35 1021 30.15 850 25.1 12.3 54.2 45 0.7 33.2
04:40 1021 30.15 850 25.1 12.2 54 45 0.7 33.3
04:45 1021 30.15 850 25.1 12.3 54.1 45 0.7 33.2
04:50 1021 30.15 850 25.1 12 53.7 46 0.8 33.5
04:55 1021 30.15 850 25.1 11.7 53 48 1.2 34.1
05:00 1021 30.15 850 25.1 11 51.8 50 1.1 34
05:05 1021 30.15 850 25.1 11 51.7 50 1 33.8
05:10 1021 30.15 850 25.1 11 51.7 50 1 33.9
05:15 1021 30.15 850 25.1 10.9 51.5 50 1 33.9
05:20 1021 30.15 850 25.1 11.1 51.9 49 0.8 33.4
05:25 1021 30.15 850 25.1 11.1 52 49 1 33.8
05:30 1021 30.15 850 25.1 11.2 52.1 48 0.7 33.2
05:35 1021 30.15 850 25.1 11.3 52.3 49 1.1 34.1
05:40 1021 30.15 850 25.1 11.1 51.9 50 1.2 34.2
05:45 1021 30.15 850 25.1 10.8 51.4 51 1.2 34.1
05:50 1021 30.15 850 25.1 11.1 51.9 50 1 33.9
05:55 1021 30.15 850 25.1 11.2 52.1 49 1 33.8
06:00 1021 30.15 850 25.1 11 51.8 50 0.9 33.6
06:05 1021 30.15 850 25.1 11 51.7 51 1.2 34.1
06:10 1021 30.15 850 25.1 10.8 51.4 49 0.6 33.1
06:15 1021 30.15 850 25.1 11 51.8 48 0.6 33
06:20 1021 30.15 850 25.1 11 51.9 50 1.1 34
06:25 1021 30.15 850 25.1 10.9 51.5 51 1.1 34
06:30 1021 30.15 850 25.1 10.3 50.5 54 1.5 34.7
06:35 1021 30.15 850 25.1 10.1 50.2 54 1.3 34.4
06:40 1021 30.15 850 25.1 10 49.9 53 0.9 33.7
06:45 1021 30.15 850 25.1 9.8 49.6 57 1.8 35.3
06:50 1021 30.15 850 25.1 9.5 49 59 1.8 35.3
06:55 1021 30.15 850 25.1 9.6 49.3 56 1.2 34.1
07:00 1021 30.15 850 25.1 9.8 49.7 57 1.6 34.9
07:05 1021 30.15 850 25.1 9.7 49.4 56 1.3 34.3
07:10 1021 30.15 850 25.1 9.6 49.3 56 1.2 34.2
07:15 1021 30.15 850 25.1 9.5 49.1 56 1.1 34
07:20 1021 30.15 850 25.1 9.5 49.1 56 1.2 34.1
07:25 1021 30.15 850 25.1 9.6 49.2 55 1 33.8
07:30 1021 30.15 850 25.1 9.7 49.4 55 1.1 34.1
07:35 1021 30.15 850 25.1 9.8 49.6 52 0.5 33
07:40 1021 30.15 850 25.1 9.9 49.9 54 1 33.9
07:45 1021 30.15 850 25.1 9.8 49.6 53 0.6 33.2
07:50 1021 30.15 850 25.1 10.1 50.2 51 0.6 33
07:55 1021 30.15 850 25.1 10.2 50.3 53 1.1 34
08:00 1021 30.15 850 25.1 10.4 50.8 46 -0.5 31
08:05 1021 30.15 850 25.1 10.9 51.6 47 0.1 32.2
08:10 1021 30.15 850 25.1 10.7 51.3 48 0.3 32.5
08:15 1021 30.15 850 25.1 10.9 51.7 48 0.5 32.8
08:20 1021 30.15 850 25.1 11.1 51.9 50 1 33.8
08:25 1021 30.15 850 25.1 11.3 52.4 46 0.3 32.5
08:30 1021 30.15 850 25.1 12.1 53.7 43 0 32
08:35 1021 30.15 850 25.1 12.6 54.8 43 0.3 32.5
08:40 1021 30.15 850 25.1 13 55.4 41 0.2 32.4
08:45 1021 30.15 850 25.1 13.3 56 42 0.6 33.1
08:50 1021 30.15 850 25.1 13.5 56.3 42 0.8 33.5
08:55 1021 30.15 850 25.1 13.7 56.7 41 0.6 33.2
09:00 1021 30.15 851 25.13 14.1 57.4 39 0.5 32.9
09:05 1021 30.15 851 25.13 14.7 58.4 37 0.1 32.2
09:10 1021 30.15 851 25.13 15.3 59.5 36 0.2 32.4
09:15 1021 30.15 851 25.13 15.7 60.2 36 0.7 33.2
09:20 1021 30.15 851 25.13 16 60.7 35 0.5 32.8
09:25 1021 30.15 851 25.13 16.1 61 35 0.9 33.6
09:30 1021 30.15 851 25.13 16.3 61.4 37 1.9 35.3
09:35 1021 30.15 851 25.13 16.5 61.7 42 3.6 38.5
09:40 1022 30.18 851 25.13 16.1 60.9 44 3.9 39
09:45 1022 30.18 851 25.13 15.5 59.8 45 3.6 38.6
09:50 1022 30.18 851 25.13 15.6 60.1 44 3.4 38.1
09:55 1022 30.18 851 25.13 15.4 59.7 44 3.2 37.8
10:00 1022 30.18 851 25.13 16.2 61.1 41 3 37.4
10:05 1022 30.18 851 25.13 17.2 63 35 1.9 35.4
10:10 1022 30.18 851 25.13 17.8 64.1 34 2 35.6
10:15 1022 30.18 851 25.13 18.1 64.6 31 0.9 33.6
10:20 1022 30.18 851 25.13 18.4 65.1 32 1.4 34.6
10:25 1022 30.18 851 25.13 18.7 65.7 30 0.9 33.5
10:30 1022 30.18 851 25.13 19.3 66.7 29 0.9 33.7
10:35 1022 30.18 851 25.13 19.1 66.3 30 1.1 33.9
10:40 1022 30.18 851 25.13 18.6 65.5 31 1.2 34.2
10:45 1022 30.18 851 25.13 18 64.5 32 1.4 34.6
10:50 1022 30.18 851 25.13 18 64.3 32 1.1 34
10:55 1021 30.15 851 25.13 18.4 65.1 30 0.8 33.4
11:00 1021 30.15 851 25.13 19 66.2 29 0.9 33.6
11:05 1021 30.15 851 25.13 19.6 67.2 29 1.3 34.3
11:10 1021 30.15 851 25.13 20 67.9 29 1.7 35
11:15 1021 30.15 851 25.13 20.7 69.3 27 1.1 34.1
11:20 1021 30.15 851 25.13 21.2 70.2 27 1.5 34.6
11:25 1021 30.15 851 25.13 21.2 70.2 27 1.5 34.7
11:30 1021 30.15 850 25.1 20.9 69.6 29 2.2 35.9
11:35 1021 30.15 850 25.1 20.3 68.6 27 1.1 33.9
11:40 1021 30.15 850 25.1 20.4 68.8 29 1.7 35.1
11:45 1021 30.15 850 25.1 20.9 69.6 26 0.9 33.6
11:50 1021 30.15 850 25.1 21.1 70 26 0.9 33.7
11:55 1021 30.15 850 25.1 20.7 69.3 26 0.9 33.7
12:00 1021 30.15 850 25.1 20.9 69.7 27 1.3 34.3
12:05 1021 30.15 850 25.1 20.9 69.7 26 1.1 34.1
12:10 1021 30.15 850 25.1 20.7 69.2 27 1 33.8
12:15 1021 30.15 850 25.1 20.8 69.5 26 0.5 33
12:20 1021 30.15 850 25.1 21 69.8 26 0.9 33.6
12:25 1021 30.15 850 25.1 21.1 69.9 25 0.7 33.2
12:30 1021 30.15 850 25.1 21.2 70.1 26 1.2 34.2
12:35 1021 30.15 850 25.1 21.3 70.3 26 0.9 33.6
12:40 1021 30.15 850 25.1 20.7 69.2 27 1.3 34.4
12:45 1021 30.15 850 25.1 20.3 68.5 28 1.3 34.3
12:50 1021 30.15 850 25.1 21.1 69.9 27 1.3 34.3
12:55 1021 30.15 850 25.1 21.4 70.6 26 1.1 34
13:00 1021 30.15 850 25.1 21.7 71 26 1.6 34.8
13:05 1021 30.15 850 25.1 21.7 71 24 0.6 33.2
13:10 1021 30.15 850 25.1 22 71.6 24 0.8 33.4
13:15 1021 30.15 850 25.1 22.5 72.4 25 1.7 35.1
13:20 1021 30.15 850 25.1 22.8 73 23 0.5 32.9
13:25 1021 30.15 850 25.1 22.8 73 25 1.8 35.3
13:30 1021 30.15 850 25.1 22.5 72.6 24 1.2 34.1
13:35 1021 30.15 850 25.1 22.9 73.2 24 1.3 34.3
13:40 1021 30.15 850 25.1 22.5 72.5 23 0.8 33.4
13:45 1021 30.15 850 25.1 22.2 72 24 1.1 34.1
13:50 1021 30.15 850 25.1 22.8 73 23 1 33.9
13:55 1020 30.12 850 25.1 22.5 72.5 23 0.5 32.9
14:00 1020 30.12 850 25.1 22 71.5 24 0.9 33.5
14:05 1020 30.12 850 25.1 20.9 69.6 26 1.1 33.9
14:10 1020 30.12 850 25.1 20.9 69.6 26 0.8 33.4
14:15 1020 30.12 849 25.07 21.4 70.4 25 0.6 33.1
14:20 1020 30.12 849 25.07 21.5 70.7 25 0.9 33.6
14:25 1020 30.12 849 25.07 21.9 71.4 24 0.8 33.5
14:30 1020 30.12 849 25.07 22.1 71.8 24 0.9 33.5
14:35 1020 30.12 849 25.07 22.7 72.9 23 0.6 33.2
14:40 1020 30.12 849 25.07 23.2 73.8 23 1.3 34.3
14:45 1020 30.12 849 25.07 22.4 72.2 23 0.2 32.3
14:50 1020 30.12 849 25.07 22.4 72.3 22 -0.4 31.3
14:55 1020 30.12 849 25.07 22.8 73 21 -0.2 31.7
15:00 1020 30.12 849 25.07 22.4 72.3 22 0.1 32.2
15:05 1020 30.12 849 25.07 22.2 71.9 24 0.7 33.2
15:10 1020 30.12 849 25.07 22.1 71.7 22 -0.2 31.7
15:15 1020 30.12 849 25.07 22.1 71.7 24 1 33.8
15:20 1020 30.12 849 25.07 22.3 72.2 25 1.8 35.2
15:25 1020 30.12 849 25.07 22.5 72.4 23 0.7 33.2
15:30 1020 30.12 849 25.07 22.7 72.9 22 0.4 32.8
15:35 1020 30.12 849 25.07 23.3 74 21 -0.1 31.9
15:40 1020 30.12 849 25.07 23.5 74.3 23 1.3 34.3
15:45 1020 30.12 849 25.07 23.9 75 21 0.8 33.4
15:50 1020 30.12 849 25.07 24 75.2 20 0.2 32.4
15:55 1020 30.12 849 25.07 24 75.1 20 -0 31.9
16:00 1020 30.12 849 25.07 24.1 75.4 19 -0.5 31.1
16:05 1020 30.12 849 25.07 24.2 75.6 21 0.6 33.2
16:10 1019 30.09 849 25.07 24 75.2 19 -0.5 31.1
16:15 1019 30.09 849 25.07 23.7 74.7 19 -1 30.2
16:20 1019 30.09 849 25.07 24 75.2 18 -1.5 29.2
16:25 1019 30.09 849 25.07 24.2 75.6 18 -1 30.2
16:30 1019 30.09 849 25.07 24.4 75.9 19 -0.4 31.3
16:35 1019 30.09 849 25.07 24.6 76.3 18 -1.3 29.6
16:40 1019 30.09 849 25.07 24.9 76.8 18 -1.1 30.1
16:45 1019 30.09 848 25.04 24.8 76.6 19 -0.4 31.3
16:50 1019 30.09 848 25.04 24.4 75.9 18 -1.1 30
16:55 1019 30.09 848 25.04 25.1 77.2 18 -0.7 30.7
17:00 1019 30.09 848 25.04 25.2 77.4 16 -2.1 28.2
17:05 1019 30.09 848 25.04 25.3 77.5 17 -0.9 30.3
17:10 1019 30.09 848 25.04 25.5 78 17 -1 30.1
17:15 1019 30.09 848 25.04 25.2 77.3 17 -1.5 29.3
17:20 1019 30.09 848 25.04 25.1 77.2 18 -0.4 31.3
17:25 1019 30.09 848 25.04 24.8 76.6 17 -1.4 29.5
17:30 1019 30.09 848 25.04 24.4 75.9 18 -1.6 29.2
17:35 1019 30.09 848 25.04 24.5 76.2 16 -2.3 27.8
17:40 1019 30.09 848 25.04 24.5 76 18 -1.3 29.7
17:45 1019 30.09 848 25.04 24.3 75.8 18 -1.2 29.8
17:50 1019 30.09 848 25.04 24.3 75.7 17 -1.9 28.7
17:55 1019 30.09 848 25.04 24.2 75.6 18 -1.5 29.3
18:00 1019 30.09 848 25.04 24.5 76.1 18 -1.3 29.6
18:05 1019 30.09 848 25.04 24.6 76.2 18 -0.8 30.5
18:10 1019 30.09 848 25.04 24.5 76 18 -1.3 29.6
18:15 1019 30.09 848 25.04 24.2 75.5 19 -0.9 30.5
18:20 1019 30.09 848 25.04 23.8 74.9 19 -1.2 29.8
18:25 1019 30.09 848 25.04 23.3 73.9 20 -0.7 30.8
18:30 1019 30.09 848 25.04 23.2 73.7 20 -0.6 31
18:35 1019 30.09 848 25.04 23.3 74 20 -0.5 31.2
18:40 1019 30.09 848 25.04 23.4 74.1 21 -0.2 31.6
18:45 1019 30.09 848 25.04 22.8 73 22 0.2 32.4
18:50 1019 30.09 848 25.04 22.3 72.2 22 -0.2 31.7
18:55 1019 30.09 848 25.04 22 71.6 22 -0.6 31
19:00 1018 30.06 848 25.04 21.7 71 22 -0.8 30.6
19:05 1019 30.09 848 25.04 21.4 70.5 23 -0.3 31.5
19:10 1019 30.09 848 25.04 21.1 70.1 24 -0 31.9
19:15 1019 30.09 848 25.04 20.9 69.5 26 0.6 33
19:20 1019 30.09 848 25.04 19.8 67.6 28 0.7 33.3
19:25 1019 30.09 848 25.04 18.9 66 32 2.2 36
19:30 1019 30.09 848 25.04 18.3 64.9 32 1.3 34.4
19:35 1019 30.09 848 25.04 17.7 63.9 32 0.9 33.7
19:40 1019 30.09 848 25.04 17.4 63.3 32 0.8 33.4
19:45 1018 30.06 848 25.04 17.4 63.3 32 0.4 32.8
19:50 1018 30.06 848 25.04 17.3 63.2 33 1.2 34.2
19:55 1018 30.06 848 25.04 17.2 62.9 32 0.7 33.2
20:00 1018 30.06 848 25.04 16.9 62.4 35 1.4 34.6
20:05 1018 30.06 848 25.04 16.7 62 33 0.5 32.9
20:10 1018 30.06 848 25.04 16.5 61.7 34 0.7 33.3
20:15 1018 30.06 848 25.04 16.2 61.2 33 0.3 32.5
20:20 1018 30.06 848 25.04 16 60.9 38 1.7 35
20:25 1018 30.06 848 25.04 16 60.7 35 0.5 33
20:30 1018 30.06 848 25.04 15.6 60.1 38 1.4 34.5
20:35 1018 30.06 848 25.04 15.9 60.5 34 0.2 32.4
20:40 1018 30.06 848 25.04 15.7 60.3 35 0.2 32.4
20:45 1018 30.06 848 25.04 15.7 60.3 35 0.4 32.8
20:50 1018 30.06 848 25.04 15.3 59.5 40 1.7 35.1
20:55 1018 30.06 848 25.04 15.2 59.4 38 0.9 33.6
21:00 1018 30.06 848 25.04 15 58.9 38 0.7 33.3
21:05 1018 30.06 848 25.04 14.7 58.5 41 1.7 35.1
21:10 1018 30.06 848 25.04 14.5 58.2 38 0.6 33
21:15 1018 30.06 848 25.04 14.5 58.2 38 0.4 32.7
21:20 1018 30.06 848 25.04 14.2 57.6 39 0.6 33.1
21:25 1018 30.06 848 25.04 14.2 57.6 38 0.1 32.2
21:30 1018 30.06 848 25.04 14.6 58.2 35 -0.8 30.6
21:35 1018 30.06 848 25.04 15.2 59.4 33 -1 30.1
21:40 1018 30.06 848 25.04 15.5 59.8 32 -0.9 30.4
21:45 1018 30.06 848 25.04 15.5 59.9 33 -0.6 31
21:50 1018 30.06 848 25.04 15.5 59.8 32 -1.1 29.9
21:55 1018 30.06 848 25.04 15.5 59.8 32 -1 30.2
22:00 1018 30.06 848 25.04 15.4 59.7 39 1.6 34.9
22:05 1018 30.06 848 25.04 15.8 60.5 31 -1.2 29.9
22:10 1018 30.06 848 25.04 15.9 60.7 31 -1.1 30
22:15 1018 30.06 848 25.04 15.8 60.5 31 -1.1 30.1
22:20 1018 30.06 848 25.04 15.5 60 32 -0.8 30.5
22:25 1018 30.06 848 25.04 15.4 59.8 37 0.8 33.5
22:30 1018 30.06 848 25.04 15 59 35 -0.3 31.5
22:35 1018 30.06 848 25.04 13.9 57 38 -0 32
22:40 1018 30.06 848 25.04 13.6 56.5 38 -0.4 31.2
22:45 1018 30.06 848 25.04 13.5 56.4 37 -0.8 30.5
22:50 1019 30.09 848 25.04 13.9 56.9 35 -1.2 29.8
22:55 1019 30.09 848 25.04 13.9 57 36 -1 30.2
23:00 1019 30.09 848 25.04 13.7 56.6 37 -0.8 30.5
23:05 1019 30.09 848 25.04 13.6 56.5 36 -1.1 30
23:10 1019 30.09 848 25.04 13.9 57 35 -1.3 29.6
23:15 1019 30.09 848 25.04 14.1 57.3 37 -0.4 31.4
23:20 1019 30.09 848 25.04 13.7 56.7 38 -0.2 31.6
23:25 1019 30.09 848 25.04 13.5 56.3 36 -1.1 30
23:30 1019 30.09 848 25.04 13.5 56.2 38 -0.4 31.2
23:35 1019 30.09 848 25.04 13.5 56.4 36 -1 30.2
23:40 1019 30.09 848 25.04 13.4 56.1 39 -0.2 31.7
23:45 1019 30.09 848 25.04 13.1 55.6 40 0 32
23:50 1019 30.09 848 25.04 12.8 55 42 0.2 32.3
23:55 1019 30.09 848 25.04 12.3 54.1 44 0.4 32.8
24:00 1019 30.09 848 25.04 12.4 54.4 43 0.1 32.2